Terminal Aerodrome Forecast
Issued by NWS Wichita, KS

Home | Current Version | Previous Version | Text Only | Print | Product List | Glossary On
Versions: 1 2 3 4 5 6 7 8 9 10 11 12 13 14 15 16
753
FTUS43 KICT 251912 AAC
TAFICT
TAF AMD
KICT 251912Z 2519/2618 33009KT P6SM VCTS SCT015 BKN050CB
      TEMPO 2519/2523 VRB15G30KT 2SM +TSRA SCT009 BKN015CB
     FM260400 36007KT 4SM -SHRA BR OVC008=

USA.gov is the U.S. government's official web portal to all federal, state and local government web resources and services.